sensor_id;sensor_type;location;lat;lon;timestamp;P1;durP1;ratioP1;P2;durP2;ratioP2
40997;SDS011;26740;45.944;12.480;2023-01-16T00:00:52;19.13;;;12.27;;
40997;SDS011;26740;45.944;12.480;2023-01-16T00:03:18;20.15;;;12.30;;
40997;SDS011;26740;45.944;12.480;2023-01-16T00:05:44;20.27;;;11.73;;
40997;SDS011;26740;45.944;12.480;2023-01-16T00:08:10;17.90;;;10.77;;
40997;SDS011;26740;45.944;12.480;2023-01-16T00:10:36;21.30;;;12.68;;
40997;SDS011;26740;45.944;12.480;2023-01-16T00:13:01;20.60;;;11.57;;
40997;SDS011;26740;45.944;12.480;2023-01-16T00:15:27;18.38;;;11.90;;
40997;SDS011;26740;45.944;12.480;2023-01-16T00:17:53;17.45;;;11.35;;
40997;SDS011;26740;45.944;12.480;2023-01-16T00:20:19;15.63;;;10.32;;
40997;SDS011;26740;45.944;12.480;2023-01-16T00:22:45;18.73;;;11.98;;
40997;SDS011;26740;45.944;12.480;2023-01-16T00:25:10;15.35;;;10.60;;
40997;SDS011;26740;45.944;12.480;2023-01-16T00:27:36;17.75;;;9.98;;
40997;SDS011;26740;45.944;12.480;2023-01-16T00:30:02;13.05;;;8.57;;
40997;SDS011;26740;45.944;12.480;2023-01-16T00:32:29;13.15;;;8.43;;
40997;SDS011;26740;45.944;12.480;2023-01-16T00:34:55;12.82;;;8.50;;
40997;SDS011;26740;45.944;12.480;2023-01-16T00:37:20;12.63;;;8.38;;
40997;SDS011;26740;45.944;12.480;2023-01-16T00:39:46;10.52;;;7.15;;
40997;SDS011;26740;45.944;12.480;2023-01-16T00:42:12;14.07;;;8.07;;
40997;SDS011;26740;45.944;12.480;2023-01-16T00:44:37;12.13;;;7.55;;
40997;SDS011;26740;45.944;12.480;2023-01-16T00:47:03;13.23;;;7.35;;
40997;SDS011;26740;45.944;12.480;2023-01-16T00:49:29;11.43;;;7.68;;
40997;SDS011;26740;45.944;12.480;2023-01-16T00:51:55;11.57;;;7.07;;
40997;SDS011;26740;45.944;12.480;2023-01-16T00:54:20;14.13;;;9.25;;
40997;SDS011;26740;45.944;12.480;2023-01-16T00:56:46;13.05;;;8.10;;
40997;SDS011;26740;45.944;12.480;2023-01-16T00:59:11;17.33;;;7.85;;
40997;SDS011;26740;45.944;12.480;2023-01-16T01:01:37;10.32;;;6.72;;
40997;SDS011;26740;45.944;12.480;2023-01-16T01:04:03;13.45;;;7.70;;
40997;SDS011;26740;45.944;12.480;2023-01-16T01:06:29;11.13;;;7.63;;
40997;SDS011;26740;45.944;12.480;2023-01-16T01:08:55;11.55;;;8.05;;
40997;SDS011;26740;45.944;12.480;2023-01-16T01:11:21;14.55;;;7.22;;
40997;SDS011;26740;45.944;12.480;2023-01-16T01:13:48;10.68;;;7.10;;
40997;SDS011;26740;45.944;12.480;2023-01-16T01:16:14;12.80;;;8.27;;
40997;SDS011;26740;45.944;12.480;2023-01-16T01:18:40;12.05;;;8.68;;
40997;SDS011;26740;45.944;12.480;2023-01-16T01:21:06;14.65;;;8.13;;
40997;SDS011;26740;45.944;12.480;2023-01-16T01:23:32;13.43;;;9.02;;
40997;SDS011;26740;45.944;12.480;2023-01-16T01:25:57;14.02;;;7.78;;
40997;SDS011;26740;45.944;12.480;2023-01-16T01:28:23;16.88;;;9.25;;
40997;SDS011;26740;45.944;12.480;2023-01-16T01:30:49;10.15;;;6.88;;
40997;SDS011;26740;45.944;12.480;2023-01-16T01:33:14;13.25;;;9.10;;
40997;SDS011;26740;45.944;12.480;2023-01-16T01:35:40;16.33;;;10.57;;
40997;SDS011;26740;45.944;12.480;2023-01-16T01:38:05;15.35;;;10.32;;
40997;SDS011;26740;45.944;12.480;2023-01-16T01:40:31;15.70;;;9.75;;
40997;SDS011;26740;45.944;12.480;2023-01-16T01:42:58;17.75;;;9.68;;
40997;SDS011;26740;45.944;12.480;2023-01-16T01:47:55;14.80;;;10.00;;
40997;SDS011;26740;45.944;12.480;2023-01-16T01:52:47;13.63;;;9.20;;
40997;SDS011;26740;45.944;12.480;2023-01-16T01:55:14;13.40;;;9.10;;
40997;SDS011;26740;45.944;12.480;2023-01-16T01:57:48;11.95;;;8.25;;
40997;SDS011;26740;45.944;12.480;2023-01-16T02:00:21;12.23;;;8.25;;
40997;SDS011;26740;45.944;12.480;2023-01-16T02:02:50;12.93;;;9.05;;
40997;SDS011;26740;45.944;12.480;2023-01-16T02:05:36;18.05;;;9.57;;
40997;SDS011;26740;45.944;12.480;2023-01-16T02:08:04;14.75;;;8.90;;
40997;SDS011;26740;45.944;12.480;2023-01-16T02:10:42;13.93;;;9.55;;
40997;SDS011;26740;45.944;12.480;2023-01-16T02:13:10;10.80;;;8.20;;
40997;SDS011;26740;45.944;12.480;2023-01-16T02:15:36;16.20;;;9.25;;
40997;SDS011;26740;45.944;12.480;2023-01-16T02:18:23;15.13;;;8.98;;
40997;SDS011;26740;45.944;12.480;2023-01-16T02:35:52;14.35;;;9.73;;
40997;SDS011;26740;45.944;12.480;2023-01-16T02:46:48;19.65;;;11.30;;
40997;SDS011;26740;45.944;12.480;2023-01-16T02:51:56;17.77;;;10.82;;
40997;SDS011;26740;45.944;12.480;2023-01-16T02:54:33;17.38;;;11.05;;
40997;SDS011;26740;45.944;12.480;2023-01-16T02:57:20;15.57;;;10.45;;
40997;SDS011;26740;45.944;12.480;2023-01-16T02:59:48;15.30;;;10.43;;
40997;SDS011;26740;45.944;12.480;2023-01-16T03:02:15;15.55;;;10.70;;
40997;SDS011;26740;45.944;12.480;2023-01-16T03:04:50;17.00;;;11.77;;
40997;SDS011;26740;45.944;12.480;2023-01-16T03:10:30;17.73;;;12.57;;
40997;SDS011;26740;45.944;12.480;2023-01-16T03:13:15;17.05;;;11.43;;
40997;SDS011;26740;45.944;12.480;2023-01-16T03:23:50;14.07;;;9.75;;
40997;SDS011;26740;45.944;12.480;2023-01-16T03:31:56;14.15;;;10.05;;
40997;SDS011;26740;45.944;12.480;2023-01-16T03:34:50;14.80;;;10.15;;
40997;SDS011;26740;45.944;12.480;2023-01-16T03:37:32;15.00;;;8.82;;
40997;SDS011;26740;45.944;12.480;2023-01-16T03:40:06;11.75;;;9.15;;
40997;SDS011;26740;45.944;12.480;2023-01-16T03:42:39;14.13;;;9.25;;
40997;SDS011;26740;45.944;12.480;2023-01-16T03:45:19;14.80;;;10.20;;
40997;SDS011;26740;45.944;12.480;2023-01-16T03:47:52;13.48;;;8.88;;
40997;SDS011;26740;45.944;12.480;2023-01-16T03:50:24;13.52;;;9.90;;
40997;SDS011;26740;45.944;12.480;2023-01-16T03:52:53;13.23;;;10.07;;
40997;SDS011;26740;45.944;12.480;2023-01-16T03:58:21;14.95;;;10.18;;
40997;SDS011;26740;45.944;12.480;2023-01-16T04:03:48;15.27;;;8.65;;
40997;SDS011;26740;45.944;12.480;2023-01-16T04:07:08;15.23;;;9.75;;
40997;SDS011;26740;45.944;12.480;2023-01-16T04:09:40;13.98;;;8.82;;
40997;SDS011;26740;45.944;12.480;2023-01-16T04:12:08;12.65;;;8.02;;
40997;SDS011;26740;45.944;12.480;2023-01-16T04:14:37;13.32;;;8.70;;
40997;SDS011;26740;45.944;12.480;2023-01-16T04:17:05;13.02;;;8.43;;
40997;SDS011;26740;45.944;12.480;2023-01-16T04:19:32;13.85;;;9.25;;
40997;SDS011;26740;45.944;12.480;2023-01-16T04:21:59;14.73;;;9.80;;
40997;SDS011;26740;45.944;12.480;2023-01-16T04:24:29;12.93;;;9.13;;
40997;SDS011;26740;45.944;12.480;2023-01-16T04:26:55;14.55;;;9.20;;
40997;SDS011;26740;45.944;12.480;2023-01-16T04:29:20;13.27;;;8.35;;
40997;SDS011;26740;45.944;12.480;2023-01-16T04:31:46;12.27;;;8.65;;
40997;SDS011;26740;45.944;12.480;2023-01-16T04:34:11;14.73;;;10.52;;
40997;SDS011;26740;45.944;12.480;2023-01-16T04:36:37;16.15;;;10.30;;
40997;SDS011;26740;45.944;12.480;2023-01-16T04:39:03;17.08;;;11.98;;
40997;SDS011;26740;45.944;12.480;2023-01-16T04:41:28;20.98;;;12.07;;
40997;SDS011;26740;45.944;12.480;2023-01-16T04:44:04;19.75;;;11.57;;
40997;SDS011;26740;45.944;12.480;2023-01-16T04:48:59;34.65;;;19.08;;
40997;SDS011;26740;45.944;12.480;2023-01-16T04:51:25;27.67;;;17.27;;
40997;SDS011;26740;45.944;12.480;2023-01-16T04:53:51;22.75;;;14.80;;
40997;SDS011;26740;45.944;12.480;2023-01-16T04:56:17;24.35;;;14.13;;
40997;SDS011;26740;45.944;12.480;2023-01-16T04:58:42;21.52;;;13.85;;
40997;SDS011;26740;45.944;12.480;2023-01-16T05:01:08;18.23;;;11.75;;
40997;SDS011;26740;45.944;12.480;2023-01-16T05:03:33;17.70;;;11.63;;
40997;SDS011;26740;45.944;12.480;2023-01-16T05:05:59;18.30;;;12.25;;
40997;SDS011;26740;45.944;12.480;2023-01-16T05:08:24;18.10;;;12.18;;
40997;SDS011;26740;45.944;12.480;2023-01-16T05:10:52;19.02;;;10.90;;
40997;SDS011;26740;45.944;12.480;2023-01-16T05:13:19;16.88;;;10.93;;
40997;SDS011;26740;45.944;12.480;2023-01-16T05:15:45;17.95;;;11.18;;
40997;SDS011;26740;45.944;12.480;2023-01-16T05:18:11;16.95;;;11.75;;
40997;SDS011;26740;45.944;12.480;2023-01-16T05:20:37;12.73;;;8.77;;
40997;SDS011;26740;45.944;12.480;2023-01-16T05:23:03;15.25;;;8.48;;
40997;SDS011;26740;45.944;12.480;2023-01-16T05:25:29;13.13;;;7.65;;
40997;SDS011;26740;45.944;12.480;2023-01-16T05:27:54;10.23;;;7.03;;
40997;SDS011;26740;45.944;12.480;2023-01-16T05:30:20;11.05;;;6.47;;
40997;SDS011;26740;45.944;12.480;2023-01-16T05:32:45;12.93;;;7.68;;
40997;SDS011;26740;45.944;12.480;2023-01-16T05:35:11;8.98;;;7.05;;
40997;SDS011;26740;45.944;12.480;2023-01-16T05:37:37;9.45;;;6.90;;
40997;SDS011;26740;45.944;12.480;2023-01-16T05:40:03;11.25;;;7.32;;
40997;SDS011;26740;45.944;12.480;2023-01-16T05:42:29;11.57;;;6.97;;
40997;SDS011;26740;45.944;12.480;2023-01-16T05:44:54;10.90;;;6.90;;
40997;SDS011;26740;45.944;12.480;2023-01-16T05:47:20;9.93;;;6.82;;
40997;SDS011;26740;45.944;12.480;2023-01-16T05:49:46;7.88;;;5.88;;
40997;SDS011;26740;45.944;12.480;2023-01-16T05:52:12;9.93;;;6.53;;
40997;SDS011;26740;45.944;12.480;2023-01-16T05:54:38;9.35;;;6.15;;
40997;SDS011;26740;45.944;12.480;2023-01-16T05:57:04;10.65;;;6.45;;
40997;SDS011;26740;45.944;12.480;2023-01-16T05:59:30;10.35;;;6.38;;
40997;SDS011;26740;45.944;12.480;2023-01-16T06:01:55;8.63;;;5.88;;
40997;SDS011;26740;45.944;12.480;2023-01-16T06:06:59;6.75;;;4.88;;
40997;SDS011;26740;45.944;12.480;2023-01-16T06:09:25;8.23;;;5.13;;
40997;SDS011;26740;45.944;12.480;2023-01-16T06:11:50;9.60;;;5.25;;
40997;SDS011;26740;45.944;12.480;2023-01-16T06:14:16;6.28;;;4.07;;
40997;SDS011;26740;45.944;12.480;2023-01-16T06:16:41;4.13;;;2.08;;
40997;SDS011;26740;45.944;12.480;2023-01-16T06:19:07;1.98;;;1.55;;
40997;SDS011;26740;45.944;12.480;2023-01-16T06:21:32;2.88;;;1.67;;
40997;SDS011;26740;45.944;12.480;2023-01-16T06:23:58;3.15;;;0.70;;
40997;SDS011;26740;45.944;12.480;2023-01-16T06:26:23;1.70;;;0.60;;
40997;SDS011;26740;45.944;12.480;2023-01-16T06:28:49;1.92;;;0.52;;
40997;SDS011;26740;45.944;12.480;2023-01-16T06:31:14;10.82;;;0.98;;
40997;SDS011;26740;45.944;12.480;2023-01-16T06:33:40;1.55;;;0.43;;
40997;SDS011;26740;45.944;12.480;2023-01-16T06:36:05;0.52;;;0.20;;
40997;SDS011;26740;45.944;12.480;2023-01-16T06:38:31;0.65;;;0.20;;
40997;SDS011;26740;45.944;12.480;2023-01-16T06:40:57;1.00;;;0.30;;
40997;SDS011;26740;45.944;12.480;2023-01-16T06:43:23;1.42;;;0.68;;
40997;SDS011;26740;45.944;12.480;2023-01-16T06:45:50;2.33;;;1.05;;
40997;SDS011;26740;45.944;12.480;2023-01-16T06:48:15;3.88;;;1.00;;
40997;SDS011;26740;45.944;12.480;2023-01-16T06:50:41;2.05;;;1.00;;
40997;SDS011;26740;45.944;12.480;2023-01-16T06:53:07;3.17;;;1.15;;
40997;SDS011;26740;45.944;12.480;2023-01-16T06:55:32;2.15;;;0.80;;
40997;SDS011;26740;45.944;12.480;2023-01-16T06:57:58;8.07;;;2.47;;
40997;SDS011;26740;45.944;12.480;2023-01-16T07:00:23;3.40;;;2.10;;
40997;SDS011;26740;45.944;12.480;2023-01-16T07:02:53;3.00;;;1.60;;
40997;SDS011;26740;45.944;12.480;2023-01-16T07:05:20;4.15;;;1.27;;
40997;SDS011;26740;45.944;12.480;2023-01-16T07:07:47;4.57;;;1.17;;
40997;SDS011;26740;45.944;12.480;2023-01-16T07:10:13;4.88;;;1.17;;
40997;SDS011;26740;45.944;12.480;2023-01-16T07:12:39;1.48;;;1.05;;
40997;SDS011;26740;45.944;12.480;2023-01-16T07:15:05;4.05;;;1.67;;
40997;SDS011;26740;45.944;12.480;2023-01-16T07:17:50;3.10;;;1.10;;
40997;SDS011;26740;45.944;12.480;2023-01-16T07:20:34;5.60;;;1.83;;
40997;SDS011;26740;45.944;12.480;2023-01-16T07:23:29;2.92;;;2.22;;
40997;SDS011;26740;45.944;12.480;2023-01-16T07:25:59;4.03;;;2.30;;
40997;SDS011;26740;45.944;12.480;2023-01-16T07:28:29;4.30;;;2.75;;
40997;SDS011;26740;45.944;12.480;2023-01-16T07:30:55;8.80;;;6.85;;
40997;SDS011;26740;45.944;12.480;2023-01-16T07:33:22;7.72;;;4.63;;
40997;SDS011;26740;45.944;12.480;2023-01-16T07:35:48;5.40;;;3.70;;
40997;SDS011;26740;45.944;12.480;2023-01-16T07:38:14;5.53;;;3.15;;
40997;SDS011;26740;45.944;12.480;2023-01-16T07:40:40;6.53;;;2.90;;
40997;SDS011;26740;45.944;12.480;2023-01-16T07:43:05;3.03;;;1.15;;
40997;SDS011;26740;45.944;12.480;2023-01-16T07:45:31;2.35;;;1.02;;
40997;SDS011;26740;45.944;12.480;2023-01-16T07:47:57;2.00;;;0.88;;
40997;SDS011;26740;45.944;12.480;2023-01-16T07:50:23;1.95;;;0.80;;
40997;SDS011;26740;45.944;12.480;2023-01-16T07:52:48;7.85;;;1.13;;
40997;SDS011;26740;45.944;12.480;2023-01-16T07:55:14;1.67;;;0.80;;
40997;SDS011;26740;45.944;12.480;2023-01-16T07:57:41;0.70;;;0.50;;
40997;SDS011;26740;45.944;12.480;2023-01-16T08:00:08;2.60;;;0.60;;
40997;SDS011;26740;45.944;12.480;2023-01-16T08:02:35;1.95;;;0.47;;
40997;SDS011;26740;45.944;12.480;2023-01-16T08:05:01;0.73;;;0.20;;
40997;SDS011;26740;45.944;12.480;2023-01-16T08:07:28;1.75;;;0.38;;
40997;SDS011;26740;45.944;12.480;2023-01-16T08:09:53;2.38;;;0.90;;
40997;SDS011;26740;45.944;12.480;2023-01-16T08:12:19;3.22;;;0.52;;
40997;SDS011;26740;45.944;12.480;2023-01-16T08:14:44;1.10;;;0.60;;
40997;SDS011;26740;45.944;12.480;2023-01-16T08:17:10;1.10;;;0.35;;
40997;SDS011;26740;45.944;12.480;2023-01-16T08:19:36;1.25;;;0.60;;
40997;SDS011;26740;45.944;12.480;2023-01-16T08:22:01;1.67;;;0.63;;
40997;SDS011;26740;45.944;12.480;2023-01-16T08:24:27;1.50;;;0.65;;
40997;SDS011;26740;45.944;12.480;2023-01-16T08:26:54;2.63;;;0.63;;
40997;SDS011;26740;45.944;12.480;2023-01-16T08:29:20;1.38;;;0.50;;
40997;SDS011;26740;45.944;12.480;2023-01-16T08:31:47;1.23;;;0.55;;
40997;SDS011;26740;45.944;12.480;2023-01-16T08:34:12;0.98;;;0.47;;
40997;SDS011;26740;45.944;12.480;2023-01-16T08:36:38;1.27;;;0.40;;
40997;SDS011;26740;45.944;12.480;2023-01-16T08:39:04;1.63;;;0.65;;
40997;SDS011;26740;45.944;12.480;2023-01-16T08:41:29;3.45;;;0.70;;
40997;SDS011;26740;45.944;12.480;2023-01-16T08:44:30;0.95;;;0.30;;
40997;SDS011;26740;45.944;12.480;2023-01-16T08:47:17;0.70;;;0.20;;
40997;SDS011;26740;45.944;12.480;2023-01-16T08:50:08;0.25;;;0.10;;
40997;SDS011;26740;45.944;12.480;2023-01-16T08:52:55;4.15;;;0.40;;
40997;SDS011;26740;45.944;12.480;2023-01-16T08:55:20;2.00;;;0.45;;
40997;SDS011;26740;45.944;12.480;2023-01-16T09:00:21;2.25;;;0.30;;
40997;SDS011;26740;45.944;12.480;2023-01-16T09:02:47;1.40;;;0.55;;
40997;SDS011;26740;45.944;12.480;2023-01-16T09:05:12;0.77;;;0.32;;
40997;SDS011;26740;45.944;12.480;2023-01-16T09:07:38;1.33;;;0.30;;
40997;SDS011;26740;45.944;12.480;2023-01-16T09:10:05;1.33;;;0.50;;
40997;SDS011;26740;45.944;12.480;2023-01-16T09:12:31;0.95;;;0.30;;
40997;SDS011;26740;45.944;12.480;2023-01-16T09:15:15;1.30;;;0.40;;
40997;SDS011;26740;45.944;12.480;2023-01-16T09:17:41;3.40;;;0.63;;
40997;SDS011;26740;45.944;12.480;2023-01-16T09:20:07;3.13;;;1.10;;
40997;SDS011;26740;45.944;12.480;2023-01-16T09:22:33;3.38;;;0.40;;
40997;SDS011;26740;45.944;12.480;2023-01-16T09:24:58;0.50;;;0.20;;
40997;SDS011;26740;45.944;12.480;2023-01-16T09:27:24;0.50;;;0.13;;
40997;SDS011;26740;45.944;12.480;2023-01-16T09:29:50;0.28;;;0.10;;
40997;SDS011;26740;45.944;12.480;2023-01-16T09:32:15;0.63;;;0.20;;
40997;SDS011;26740;45.944;12.480;2023-01-16T09:34:43;0.35;;;0.10;;
40997;SDS011;26740;45.944;12.480;2023-01-16T09:37:09;1.73;;;0.10;;
40997;SDS011;26740;45.944;12.480;2023-01-16T09:39:35;0.45;;;0.10;;
40997;SDS011;26740;45.944;12.480;2023-01-16T09:45:09;2.05;;;0.47;;
40997;SDS011;26740;45.944;12.480;2023-01-16T09:47:39;0.00;;;0.00;;
40997;SDS011;26740;45.944;12.480;2023-01-16T09:52:57;1.05;;;0.43;;
40997;SDS011;26740;45.944;12.480;2023-01-16T09:55:44;0.55;;;0.00;;
40997;SDS011;26740;45.944;12.480;2023-01-16T09:58:31;0.22;;;0.10;;
40997;SDS011;26740;45.944;12.480;2023-01-16T10:01:01;2.58;;;0.30;;
40997;SDS011;26740;45.944;12.480;2023-01-16T10:03:32;0.70;;;0.22;;
40997;SDS011;26740;45.944;12.480;2023-01-16T10:06:34;2.65;;;0.75;;
40997;SDS011;26740;45.944;12.480;2023-01-16T10:09:02;1.70;;;0.47;;
40997;SDS011;26740;45.944;12.480;2023-01-16T10:11:43;0.40;;;0.10;;
40997;SDS011;26740;45.944;12.480;2023-01-16T10:17:20;0.20;;;0.20;;
40997;SDS011;26740;45.944;12.480;2023-01-16T10:25:53;2.17;;;0.57;;
40997;SDS011;26740;45.944;12.480;2023-01-16T10:34:14;1.92;;;0.20;;
40997;SDS011;26740;45.944;12.480;2023-01-16T10:36:48;1.30;;;0.10;;
40997;SDS011;26740;45.944;12.480;2023-01-16T10:39:18;1.15;;;0.00;;
40997;SDS011;26740;45.944;12.480;2023-01-16T10:41:49;0.10;;;0.00;;
40997;SDS011;26740;45.944;12.480;2023-01-16T10:44:46;0.10;;;0.00;;
40997;SDS011;26740;45.944;12.480;2023-01-16T10:47:37;0.88;;;0.10;;
40997;SDS011;26740;45.944;12.480;2023-01-16T10:50:21;0.50;;;0.10;;
40997;SDS011;26740;45.944;12.480;2023-01-16T10:52:49;0.13;;;0.00;;
40997;SDS011;26740;45.944;12.480;2023-01-16T10:55:15;0.17;;;0.03;;
40997;SDS011;26740;45.944;12.480;2023-01-16T10:58:25;0.20;;;0.10;;
40997;SDS011;26740;45.944;12.480;2023-01-16T11:00:41;0.10;;;0.00;;
40997;SDS011;26740;45.944;12.480;2023-01-16T11:03:21;0.22;;;0.05;;
40997;SDS011;26740;45.944;12.480;2023-01-16T11:06:06;0.17;;;0.00;;
40997;SDS011;26740;45.944;12.480;2023-01-16T11:08:35;0.65;;;0.30;;
40997;SDS011;26740;45.944;12.480;2023-01-16T11:11:00;0.22;;;0.10;;
40997;SDS011;26740;45.944;12.480;2023-01-16T11:13:27;0.20;;;0.08;;
40997;SDS011;26740;45.944;12.480;2023-01-16T11:18:59;0.38;;;0.30;;
40997;SDS011;26740;45.944;12.480;2023-01-16T11:21:39;0.40;;;0.10;;
40997;SDS011;26740;45.944;12.480;2023-01-16T11:24:41;1.80;;;0.20;;
40997;SDS011;26740;45.944;12.480;2023-01-16T11:27:07;0.80;;;0.10;;
40997;SDS011;26740;45.944;12.480;2023-01-16T11:29:40;0.30;;;0.05;;
40997;SDS011;26740;45.944;12.480;2023-01-16T11:32:12;5.85;;;2.42;;
40997;SDS011;26740;45.944;12.480;2023-01-16T11:34:39;3.03;;;1.08;;
40997;SDS011;26740;45.944;12.480;2023-01-16T11:37:11;1.98;;;0.50;;
40997;SDS011;26740;45.944;12.480;2023-01-16T11:39:40;1.40;;;0.40;;
40997;SDS011;26740;45.944;12.480;2023-01-16T11:42:09;2.75;;;0.43;;
40997;SDS011;26740;45.944;12.480;2023-01-16T11:44:55;0.28;;;0.10;;
40997;SDS011;26740;45.944;12.480;2023-01-16T11:47:58;0.30;;;0.10;;
40997;SDS011;26740;45.944;12.480;2023-01-16T11:50:48;1.83;;;0.45;;
40997;SDS011;26740;45.944;12.480;2023-01-16T11:53:20;2.70;;;0.50;;
40997;SDS011;26740;45.944;12.480;2023-01-16T12:04:21;3.70;;;0.90;;
40997;SDS011;26740;45.944;12.480;2023-01-16T12:06:52;0.40;;;0.00;;
40997;SDS011;26740;45.944;12.480;2023-01-16T12:09:32;0.63;;;0.25;;
40997;SDS011;26740;45.944;12.480;2023-01-16T12:15:17;1.45;;;0.00;;
40997;SDS011;26740;45.944;12.480;2023-01-16T12:21:08;0.40;;;0.17;;
40997;SDS011;26740;45.944;12.480;2023-01-16T12:26:26;0.10;;;0.05;;
40997;SDS011;26740;45.944;12.480;2023-01-16T12:32:08;0.22;;;0.10;;
40997;SDS011;26740;45.944;12.480;2023-01-16T12:40:18;1.45;;;0.28;;
40997;SDS011;26740;45.944;12.480;2023-01-16T12:42:55;4.22;;;0.70;;
40997;SDS011;26740;45.944;12.480;2023-01-16T12:51:13;0.32;;;0.05;;
40997;SDS011;26740;45.944;12.480;2023-01-16T13:04:39;1.45;;;0.15;;
40997;SDS011;26740;45.944;12.480;2023-01-16T13:07:13;0.05;;;0.05;;
40997;SDS011;26740;45.944;12.480;2023-01-16T13:13:02;0.70;;;0.20;;
40997;SDS011;26740;45.944;12.480;2023-01-16T13:15:49;0.43;;;0.35;;
40997;SDS011;26740;45.944;12.480;2023-01-16T13:21:27;0.88;;;0.20;;
40997;SDS011;26740;45.944;12.480;2023-01-16T13:26:34;0.95;;;0.20;;
40997;SDS011;26740;45.944;12.480;2023-01-16T13:29:07;1.00;;;0.35;;
40997;SDS011;26740;45.944;12.480;2023-01-16T13:34:22;0.30;;;0.10;;
40997;SDS011;26740;45.944;12.480;2023-01-16T13:36:58;2.30;;;0.20;;
40997;SDS011;26740;45.944;12.480;2023-01-16T13:42:30;2.85;;;0.52;;
40997;SDS011;26740;45.944;12.480;2023-01-16T13:44:59;1.17;;;0.35;;
40997;SDS011;26740;45.944;12.480;2023-01-16T13:47:49;6.57;;;0.40;;
40997;SDS011;26740;45.944;12.480;2023-01-16T13:52:44;2.83;;;0.10;;
40997;SDS011;26740;45.944;12.480;2023-01-16T13:55:17;1.42;;;0.35;;
40997;SDS011;26740;45.944;12.480;2023-01-16T13:58:15;0.57;;;0.10;;
40997;SDS011;26740;45.944;12.480;2023-01-16T14:00:44;1.00;;;0.28;;
40997;SDS011;26740;45.944;12.480;2023-01-16T14:03:21;1.02;;;0.32;;
40997;SDS011;26740;45.944;12.480;2023-01-16T14:05:53;1.23;;;0.20;;
40997;SDS011;26740;45.944;12.480;2023-01-16T14:11:36;0.75;;;0.30;;
40997;SDS011;26740;45.944;12.480;2023-01-16T14:17:09;9.38;;;2.33;;
40997;SDS011;26740;45.944;12.480;2023-01-16T14:19:37;4.30;;;1.42;;
40997;SDS011;26740;45.944;12.480;2023-01-16T14:22:05;5.28;;;3.08;;
40997;SDS011;26740;45.944;12.480;2023-01-16T14:24:41;3.00;;;1.63;;
40997;SDS011;26740;45.944;12.480;2023-01-16T14:29:45;1.27;;;0.25;;
40997;SDS011;26740;45.944;12.480;2023-01-16T14:32:19;3.08;;;0.80;;
40997;SDS011;26740;45.944;12.480;2023-01-16T14:35:10;4.32;;;0.52;;
40997;SDS011;26740;45.944;12.480;2023-01-16T14:37:40;0.50;;;0.25;;
40997;SDS011;26740;45.944;12.480;2023-01-16T14:42:34;2.80;;;0.93;;
40997;SDS011;26740;45.944;12.480;2023-01-16T14:45:25;1.95;;;0.65;;
40997;SDS011;26740;45.944;12.480;2023-01-16T14:53:57;1.15;;;0.55;;
40997;SDS011;26740;45.944;12.480;2023-01-16T14:56:44;3.60;;;0.77;;
40997;SDS011;26740;45.944;12.480;2023-01-16T14:59:22;1.73;;;0.40;;
40997;SDS011;26740;45.944;12.480;2023-01-16T15:02:30;4.10;;;0.60;;
40997;SDS011;26740;45.944;12.480;2023-01-16T15:05:15;6.45;;;0.32;;
40997;SDS011;26740;45.944;12.480;2023-01-16T15:07:53;5.13;;;1.80;;
40997;SDS011;26740;45.944;12.480;2023-01-16T15:10:32;2.60;;;1.63;;
40997;SDS011;26740;45.944;12.480;2023-01-16T15:13:18;3.88;;;1.15;;
40997;SDS011;26740;45.944;12.480;2023-01-16T15:15:51;1.90;;;0.88;;
40997;SDS011;26740;45.944;12.480;2023-01-16T15:18:25;0.98;;;0.80;;
40997;SDS011;26740;45.944;12.480;2023-01-16T15:21:16;2.78;;;0.40;;
40997;SDS011;26740;45.944;12.480;2023-01-16T15:23:46;3.50;;;0.75;;
40997;SDS011;26740;45.944;12.480;2023-01-16T15:26:15;5.15;;;0.77;;
40997;SDS011;26740;45.944;12.480;2023-01-16T15:31:18;4.63;;;0.50;;
40997;SDS011;26740;45.944;12.480;2023-01-16T15:34:00;2.53;;;1.40;;
40997;SDS011;26740;45.944;12.480;2023-01-16T15:44:56;2.70;;;1.45;;
40997;SDS011;26740;45.944;12.480;2023-01-16T15:52:50;5.60;;;2.00;;
40997;SDS011;26740;45.944;12.480;2023-01-16T15:57:59;5.17;;;2.83;;
40997;SDS011;26740;45.944;12.480;2023-01-16T16:00:36;7.18;;;2.83;;
40997;SDS011;26740;45.944;12.480;2023-01-16T16:05:52;3.58;;;2.03;;
40997;SDS011;26740;45.944;12.480;2023-01-16T16:08:21;4.50;;;2.00;;
40997;SDS011;26740;45.944;12.480;2023-01-16T16:10:53;3.37;;;1.53;;
40997;SDS011;26740;45.944;12.480;2023-01-16T16:13:40;2.22;;;0.90;;
40997;SDS011;26740;45.944;12.480;2023-01-16T16:16:17;1.60;;;1.00;;
40997;SDS011;26740;45.944;12.480;2023-01-16T16:19:03;5.22;;;1.30;;
40997;SDS011;26740;45.944;12.480;2023-01-16T16:21:34;4.13;;;1.60;;
40997;SDS011;26740;45.944;12.480;2023-01-16T16:24:27;5.55;;;1.48;;
40997;SDS011;26740;45.944;12.480;2023-01-16T16:26:53;2.15;;;0.95;;
40997;SDS011;26740;45.944;12.480;2023-01-16T16:29:19;1.02;;;0.60;;
40997;SDS011;26740;45.944;12.480;2023-01-16T16:31:46;2.15;;;0.90;;
40997;SDS011;26740;45.944;12.480;2023-01-16T16:34:22;2.30;;;1.30;;
40997;SDS011;26740;45.944;12.480;2023-01-16T16:36:49;5.88;;;0.98;;
40997;SDS011;26740;45.944;12.480;2023-01-16T16:41:59;1.65;;;0.80;;
40997;SDS011;26740;45.944;12.480;2023-01-16T16:44:44;2.22;;;0.68;;
40997;SDS011;26740;45.944;12.480;2023-01-16T16:49:48;3.03;;;0.45;;
40997;SDS011;26740;45.944;12.480;2023-01-16T16:54:59;1.08;;;0.40;;
40997;SDS011;26740;45.944;12.480;2023-01-16T16:57:26;0.65;;;0.32;;
40997;SDS011;26740;45.944;12.480;2023-01-16T17:00:06;1.20;;;0.50;;
40997;SDS011;26740;45.944;12.480;2023-01-16T17:02:38;0.80;;;0.32;;
40997;SDS011;26740;45.944;12.480;2023-01-16T17:05:04;2.00;;;0.70;;
40997;SDS011;26740;45.944;12.480;2023-01-16T17:07:30;1.05;;;0.50;;
40997;SDS011;26740;45.944;12.480;2023-01-16T17:09:58;3.20;;;1.10;;
40997;SDS011;26740;45.944;12.480;2023-01-16T17:12:24;1.60;;;0.47;;
40997;SDS011;26740;45.944;12.480;2023-01-16T17:14:49;2.33;;;0.85;;
40997;SDS011;26740;45.944;12.480;2023-01-16T17:17:16;2.28;;;0.88;;
40997;SDS011;26740;45.944;12.480;2023-01-16T17:19:43;1.65;;;1.00;;
40997;SDS011;26740;45.944;12.480;2023-01-16T17:22:10;2.45;;;1.55;;
40997;SDS011;26740;45.944;12.480;2023-01-16T17:24:36;2.47;;;1.02;;
40997;SDS011;26740;45.944;12.480;2023-01-16T17:27:03;3.75;;;1.67;;
40997;SDS011;26740;45.944;12.480;2023-01-16T17:29:34;7.80;;;3.60;;
40997;SDS011;26740;45.944;12.480;2023-01-16T17:31:59;5.55;;;2.47;;
40997;SDS011;26740;45.944;12.480;2023-01-16T17:34:31;5.22;;;2.28;;
40997;SDS011;26740;45.944;12.480;2023-01-16T17:36:57;5.20;;;1.98;;
40997;SDS011;26740;45.944;12.480;2023-01-16T17:39:24;3.72;;;2.00;;
40997;SDS011;26740;45.944;12.480;2023-01-16T17:41:50;6.93;;;2.20;;
40997;SDS011;26740;45.944;12.480;2023-01-16T17:44:17;3.30;;;1.92;;
40997;SDS011;26740;45.944;12.480;2023-01-16T17:47:03;6.53;;;2.97;;
40997;SDS011;26740;45.944;12.480;2023-01-16T17:49:30;7.15;;;2.65;;
40997;SDS011;26740;45.944;12.480;2023-01-16T17:51:56;6.15;;;2.42;;
40997;SDS011;26740;45.944;12.480;2023-01-16T17:54:22;3.70;;;2.33;;
40997;SDS011;26740;45.944;12.480;2023-01-16T17:57:10;5.30;;;2.97;;
40997;SDS011;26740;45.944;12.480;2023-01-16T17:59:36;5.82;;;2.92;;
40997;SDS011;26740;45.944;12.480;2023-01-16T18:02:01;5.07;;;2.97;;